Casa Grande, AZ

5:46 PM MST on August 27, 2016 (GMT -0700)
Casa Grande Municipal

Weather History for KCGZ - August, 2013

Change the Weather History Date:

Sunday, August 18, 2013

  Actual Average Record
Temperature  
Mean Temperature 94 °F -  
Max Temperature 109 °F 99 °F 109 °F (2011)
Min Temperature 78 °F 75 °F 69 °F (1997)
Cooling Degree Days 28    
Growing Degree Days 44 (Base 50)    
Moisture  
Dew Point 58 °F    
Average Humidity 34    
Maximum Humidity 57    
Minimum Humidity 14    
Precipitation  
Precipitation 0.00 in - - ()
Sea Level Pressure  
Sea Level Pressure 29.89 in    
Wind  
Wind Speed 7 mph (SE)    
Max Wind Speed 25 mph    
Max Gust Speed 30 mph    
Visibility 10 miles    
Events Thunderstorm    
Averages and records for this station are not official NWS values.
T = Trace of Precipitation, MM = Missing Value Source: NWS Daily Summary

Daily Weather History Graph

Daily Weather History Graph

Search for Another Location

Airport or City:

Trip Planner

Search our weather history database for the weather conditions in past years. The results will help you decide how hot, cold, wet, or windy it might be!

Date:

Astronomy

Aug. 18, 2013 Rise Set
Actual Time 5:52 AM MST 7:08 PM MST
Civil Twilight 5:26 AM MST 7:34 PM MST
Nautical Twilight 4:55 AM MST 8:05 PM MST
Astronomical Twilight 4:23 AM MST 8:37 PM MST
Moon 5:14 PM MST (8/18) 3:10 AM MST (8/18)
Length of Visible Light 14h 07m
Length of Day
13h 16m
Waxing Gibbous, 93% of the Moon is Illuminated
Aug 18
Waxing Gibbous
Aug 20
Full
Aug 28
Last Quarter
Sep 5
New
Sep 12
First Quarter

Hourly Weather History & Observations

Time (MST) Temp. Heat Index Dew Point Humidity Pressure Visibility Wind Dir Wind Speed Gust Speed Precip Events Conditions
12:15 AM 86.0 °F 86.1 °F 60.8 °F 43% 29.93 in 10.0 mi North 8.1 mph - N/A   Clear
12:35 AM 87.8 °F 87.1 °F 59.0 °F 38% 29.93 in 10.0 mi North 15.0 mph - N/A   Clear
12:55 AM 86.0 °F 86.1 °F 60.8 °F 43% 29.92 in 10.0 mi North 8.1 mph - N/A   Clear
1:15 AM 84.2 °F 84.4 °F 60.8 °F 45% 29.92 in 10.0 mi NE 9.2 mph - N/A   Clear
1:35 AM 84.2 °F 84.4 °F 60.8 °F 45% 29.92 in 10.0 mi East 10.4 mph - N/A   Clear
1:55 AM 84.2 °F 84.4 °F 60.8 °F 45% 29.92 in 10.0 mi ENE 10.4 mph - N/A   Clear
2:15 AM 84.2 °F 84.4 °F 60.8 °F 45% 29.92 in 10.0 mi North 5.8 mph - N/A   Clear
2:35 AM 86.0 °F 84.9 °F 57.2 °F 37% 29.92 in 10.0 mi NW 8.1 mph - N/A   Clear
2:55 AM 84.2 °F 84.4 °F 60.8 °F 45% 29.91 in 10.0 mi WNW 4.6 mph - N/A   Clear
3:15 AM 82.4 °F 82.9 °F 60.8 °F 48% 29.91 in 10.0 mi NW 6.9 mph - N/A   Clear
3:35 AM 82.4 °F 82.9 °F 60.8 °F 48% 29.90 in 10.0 mi NW 4.6 mph - N/A   Clear
3:55 AM 82.4 °F 82.9 °F 60.8 °F 48% 29.90 in 10.0 mi Calm Calm - N/A   Clear
4:15 AM 82.4 °F 82.9 °F 60.8 °F 48% 29.89 in 10.0 mi Calm Calm - N/A   Clear
4:35 AM 80.6 °F 81.5 °F 60.8 °F 51% 29.89 in 10.0 mi Calm Calm - N/A   Clear
4:55 AM 80.6 °F 81.5 °F 60.8 °F 51% 29.89 in 10.0 mi SE 3.5 mph - N/A   Clear
5:15 AM 80.6 °F 81.5 °F 60.8 °F 51% 29.89 in 10.0 mi Calm Calm - N/A   Clear
5:35 AM 78.8 °F - 60.8 °F 54% 29.89 in 10.0 mi Calm Calm - N/A   Clear
5:55 AM 78.8 °F - 60.8 °F 54% 29.90 in 10.0 mi Calm Calm - N/A   Clear
6:15 AM 78.8 °F - 62.6 °F 57% 29.90 in 10.0 mi Calm Calm - N/A   Clear
6:35 AM 80.6 °F 81.8 °F 62.6 °F 54% 29.91 in 10.0 mi Calm Calm - N/A   Clear
6:55 AM 82.4 °F 83.4 °F 62.6 °F 51% 29.91 in 10.0 mi Calm Calm - N/A   Clear
7:15 AM 84.2 °F 85.0 °F 62.6 °F 48% 29.92 in 10.0 mi Calm Calm - N/A   Clear
7:35 AM 86.0 °F 86.1 °F 60.8 °F 43% 29.91 in 10.0 mi ESE 3.5 mph - N/A   Clear
7:55 AM 87.8 °F 87.6 °F 60.8 °F 40% 29.92 in 10.0 mi North 6.9 mph - N/A   Clear
8:15 AM 87.8 °F 87.6 °F 60.8 °F 40% 29.93 in 10.0 mi North 8.1 mph - N/A   Clear
8:35 AM 89.6 °F 88.9 °F 59.0 °F 36% 29.93 in 10.0 mi NE 5.8 mph - N/A   Clear
8:55 AM 91.4 °F 89.9 °F 57.2 °F 31% 29.93 in 10.0 mi East 4.6 mph - N/A   Clear
9:15 AM 91.4 °F 90.7 °F 59.0 °F 34% 29.93 in 10.0 mi East 5.8 mph - N/A   Clear
9:35 AM 93.2 °F 91.9 °F 57.2 °F 30% 29.93 in 10.0 mi ESE 6.9 mph - N/A   Clear
9:55 AM 93.2 °F 91.9 °F 57.2 °F 30% 29.93 in 10.0 mi ESE 5.8 mph - N/A   Clear
10:15 AM 96.8 °F 95.8 °F 57.2 °F 27% 29.93 in 10.0 mi SSE 6.9 mph - N/A   Clear
10:35 AM 96.8 °F 95.1 °F 55.4 °F 25% 29.93 in 10.0 mi ESE 4.6 mph - N/A   Clear
10:55 AM 96.8 °F 95.1 °F 55.4 °F 25% 29.92 in 10.0 mi NE 5.8 mph - N/A   Clear
11:15 AM 98.6 °F 97.2 °F 55.4 °F 24% 29.92 in 10.0 mi Calm Calm - N/A   Clear
11:35 AM 100.4 °F 98.8 °F 55.4 °F 22% 29.91 in 10.0 mi East 6.9 mph - N/A   Clear
11:55 AM 100.4 °F 98.4 °F 53.6 °F 21% 29.91 in 10.0 mi ENE 5.8 mph - N/A   Clear
12:15 PM 100.4 °F 98.8 °F 55.4 °F 22% 29.90 in 10.0 mi NE 5.8 mph - N/A   Clear
12:35 PM 102.2 °F 100.9 °F 55.4 °F 21% 29.89 in 10.0 mi Calm Calm - N/A   Clear
12:55 PM 104.0 °F 102.9 °F 55.4 °F 20% 29.89 in 10.0 mi SSW 4.6 mph - N/A   Clear
1:15 PM 104.0 °F 102.9 °F 55.4 °F 20% 29.87 in 10.0 mi WSW 4.6 mph - N/A   Clear
1:35 PM 105.8 °F 104.9 °F 55.4 °F 19% 29.87 in 10.0 mi SW 4.6 mph - N/A   Clear
1:55 PM 105.8 °F 104.9 °F 55.4 °F 19% 29.86 in 10.0 mi Calm Calm - N/A   Clear
2:15 PM 105.8 °F 104.3 °F 53.6 °F 18% 29.85 in 10.0 mi WSW 10.4 mph - N/A   Clear
2:35 PM 107.6 °F 106.1 °F 53.6 °F 17% 29.84 in 10.0 mi SW 6.9 mph 16.1 mph N/A   Clear
2:55 PM 107.6 °F - 51.8 °F 16% 29.82 in 10.0 mi Calm Calm - N/A   Clear
3:15 PM 109.4 °F - 51.8 °F 15% 29.82 in 10.0 mi Calm Calm - N/A   Clear
3:35 PM 109.4 °F - 50.0 °F 14% 29.82 in 10.0 mi NW 10.4 mph 17.3 mph N/A   Clear
3:55 PM 107.6 °F - 50.0 °F 15% 29.81 in 10.0 mi SW 10.4 mph - N/A   Clear
4:15 PM 107.6 °F - 50.0 °F 15% 29.81 in 10.0 mi SSE 9.2 mph - N/A   Clear
4:35 PM 107.6 °F 106.8 °F 55.4 °F 18% 29.82 in 10.0 mi SSW 13.8 mph 20.7 mph N/A   Clear
4:55 PM 104.0 °F - 51.8 °F 17% 29.82 in 7.0 mi SE 25.3 mph 29.9 mph N/A   Scattered Clouds
5:15 PM 93.2 °F 97.7 °F 68.0 °F 44% 29.84 in 5.0 mi SE 11.5 mph 17.3 mph N/A   Mostly Cloudy
5:35 PM 93.2 °F 93.3 °F 60.8 °F 34% 29.84 in 9.0 mi SSE 23.0 mph 29.9 mph N/A   Mostly Cloudy
5:55 PM 89.6 °F 89.5 °F 60.8 °F 38% 29.84 in 10.0 mi SE 17.3 mph 26.5 mph N/A   Partly Cloudy
6:15 PM 91.4 °F 89.9 °F 57.2 °F 31% 29.84 in 10.0 mi South 15.0 mph 24.2 mph N/A   Clear
6:35 PM 93.2 °F 92.6 °F 59.0 °F 32% 29.84 in 10.0 mi SSW 13.8 mph - N/A Thunderstorm Thunderstorm
6:55 PM 91.4 °F 92.1 °F 62.6 °F 38% 29.85 in 10.0 mi SSW 8.1 mph - N/A   Clear
7:15 PM 91.4 °F 91.4 °F 60.8 °F 36% 29.84 in 10.0 mi South 10.4 mph - N/A   Clear
7:35 PM 93.2 °F 91.9 °F 57.2 °F 30% 29.86 in 10.0 mi South 10.4 mph - N/A   Clear
7:55 PM 93.2 °F 91.9 °F 57.2 °F 30% 29.87 in 10.0 mi South 11.5 mph - N/A   Clear
8:15 PM 93.2 °F 91.9 °F 57.2 °F 30% 29.88 in 10.0 mi SW 10.4 mph - N/A   Clear
8:35 PM 91.4 °F 90.7 °F 59.0 °F 34% 29.91 in 10.0 mi South 9.2 mph - N/A   Clear
8:55 PM 91.4 °F 90.7 °F 59.0 °F 34% 29.92 in 10.0 mi South 5.8 mph - N/A   Clear
9:15 PM 91.4 °F 89.9 °F 57.2 °F 31% 29.92 in 10.0 mi South 15.0 mph - N/A   Clear
9:35 PM 89.6 °F 88.1 °F 57.2 °F 33% 29.92 in 10.0 mi South 11.5 mph - N/A   Clear
9:55 PM 89.6 °F 88.1 °F 57.2 °F 33% 29.93 in 10.0 mi South 13.8 mph - N/A   Clear
10:15 PM 89.6 °F 88.1 °F 57.2 °F 33% 29.93 in 10.0 mi SSW 13.8 mph 19.6 mph N/A   Clear
10:35 PM 89.6 °F 88.1 °F 57.2 °F 33% 29.93 in 10.0 mi South 24.2 mph - N/A   Clear
10:55 PM 89.6 °F 88.1 °F 57.2 °F 33% 29.94 in 10.0 mi South 8.1 mph - N/A   Clear
11:15 PM 89.6 °F 88.1 °F 57.2 °F 33% 29.94 in 10.0 mi NE 5.8 mph - N/A   Clear
11:35 PM 87.8 °F 86.5 °F 57.2 °F 35% 29.93 in 10.0 mi NE 4.6 mph - N/A   Clear
11:55 PM 87.8 °F 87.1 °F 59.0 °F 38% 29.92 in 10.0 mi North 4.6 mph - N/A   Clear